Time;durP1;ratioP1;P1;durP2;ratioP2;P2;SDS_P1;SDS_P2;PMS_P1;PMS_P2;Temp;Humidity;BMP_temperature;BMP_pressure;BME280_temperature;BME280_humidity;BME280_pressure;Samples;Min_cycle;Max_cycle;Signal;HPM_P1;HPM_P2
2021/09/26 00:02:21;;;;;;;12.05;10.35;;;;;;;15.86;87.20;101938.41;4914920;29;20122;-48
2021/09/26 00:04:46;;;;;;;11.00;9.52;;;;;;;15.97;85.25;101937.44;4916806;29;20028;-50
2021/09/26 00:07:12;;;;;;;14.38;10.75;;;;;;;16.04;84.99;101929.13;4916114;29;20111;-50
2021/09/26 00:09:37;;;;;;;13.73;10.55;;;;;;;16.05;84.70;101923.47;4920682;29;20036;-48
2021/09/26 00:12:03;;;;;;;16.02;10.23;;;;;;;16.01;85.00;101923.19;4914945;29;20024;-48
2021/09/26 00:14:29;;;;;;;13.32;10.25;;;;;;;16.06;84.95;101929.69;4915119;29;20032;-50
2021/09/26 00:16:57;;;;;;;14.85;10.65;;;;;;;16.07;84.99;101936.72;4916441;29;20039;-48
2021/09/26 00:19:24;;;;;;;11.98;9.38;;;;;;;16.07;84.84;101932.16;4914259;29;20155;-48
2021/09/26 00:21:49;;;;;;;13.25;9.80;;;;;;;16.08;84.98;101925.66;4913482;29;20524;-47
2021/09/26 00:24:17;;;;;;;12.15;10.25;;;;;;;16.09;84.92;101931.88;4911802;29;20104;-48
2021/09/26 00:26:42;;;;;;;10.40;9.15;;;;;;;16.08;85.05;101930.25;4921375;29;20032;-47
2021/09/26 00:29:08;;;;;;;13.20;10.50;;;;;;;16.05;85.01;101928.88;4917547;29;20047;-48
2021/09/26 00:31:34;;;;;;;14.00;10.70;;;;;;;16.01;85.41;101927.78;4919337;29;20031;-49
2021/09/26 00:33:59;;;;;;;13.98;10.75;;;;;;;16.00;85.62;101920.72;4920697;29;20099;-51
2021/09/26 00:36:25;;;;;;;17.02;11.60;;;;;;;16.04;85.47;101921.03;4923301;29;20032;-48
2021/09/26 00:38:50;;;;;;;18.10;12.20;;;;;;;16.09;85.37;101923.78;4916273;29;20518;-49
2021/09/26 00:41:16;;;;;;;15.90;11.70;;;;;;;16.07;85.63;101915.09;4920473;29;20086;-47
2021/09/26 00:43:41;;;;;;;16.55;12.55;;;;;;;16.06;85.79;101919.69;4910723;29;20051;-50
2021/09/26 00:46:07;;;;;;;17.02;12.35;;;;;;;16.06;86.13;101922.41;4920250;29;20398;-51
2021/09/26 00:48:34;;;;;;;16.55;12.63;;;;;;;15.79;89.62;101927.78;4926054;29;20032;-48
2021/09/26 00:50:59;;;;;;;15.23;10.63;;;;;;;15.93;87.54;101931.72;4922229;29;20028;-50
2021/09/26 00:53:25;;;;;;;12.55;10.73;;;;;;;15.93;87.31;101931.72;4920927;29;20024;-49
2021/09/26 00:55:54;;;;;;;15.15;11.25;;;;;;;15.91;87.70;101927.66;4928679;29;20031;-48
2021/09/26 00:58:20;;;;;;;16.38;12.25;;;;;;;15.94;87.40;101927.94;4925519;29;20031;-49
2021/09/26 01:00:47;;;;;;;16.42;11.82;;;;;;;15.96;86.99;101928.50;4918834;29;20123;-47
2021/09/26 01:03:13;;;;;;;18.27;11.27;;;;;;;15.94;87.15;101927.94;4915382;29;20032;-51
2021/09/26 01:05:39;;;;;;;16.60;11.95;;;;;;;15.98;87.29;101917.47;4916145;29;20096;-50
2021/09/26 01:08:43;;;;;;;15.40;9.85;;;;;;;16.02;86.87;101926.69;4922301;29;20035;-48
2021/09/26 01:11:20;;;;;;;10.70;8.68;;;;;;;15.96;86.49;101915.00;4869898;29;20048;-51
2021/09/26 01:14:14;;;;;;;11.70;8.18;;;;;;;15.96;85.96;101919.59;4914120;29;20043;-48
2021/09/26 01:16:57;;;;;;;13.38;8.85;;;;;;;15.76;86.24;101919.38;4927663;29;20536;-48
2021/09/26 01:19:41;;;;;;;11.45;7.95;;;;;;;15.62;86.83;101917.09;4919166;29;20713;-47
2021/09/26 01:22:11;;;;;;;20.23;12.53;;;;;;;14.95;94.67;101919.19;4917472;29;20027;-51
2021/09/26 01:24:55;;;;;;;20.98;13.52;;;;;;;15.08;92.74;101916.09;4916331;29;20070;-50
2021/09/26 01:27:39;;;;;;;20.75;14.40;;;;;;;15.25;91.38;101919.56;4924060;29;20070;-48
2021/09/26 01:30:43;;;;;;;22.92;16.98;;;;;;;15.17;93.08;101909.22;4925777;29;20027;-48
2021/09/26 01:33:29;;;;;;;22.55;15.70;;;;;;;15.25;91.79;101913.34;4914270;29;20047;-49
2021/09/26 01:36:06;;;;;;;24.02;15.68;;;;;;;14.94;96.94;101912.97;4922064;29;20118;-48
2021/09/26 01:38:50;;;;;;;23.98;15.52;;;;;;;15.07;94.17;101915.28;4922738;29;20031;-48
2021/09/26 01:41:22;;;;;;;22.20;14.32;;;;;;;15.11;94.21;101919.13;4921258;29;20059;-49
2021/09/26 01:43:50;;;;;;;25.42;15.25;;;;;;;15.15;93.92;101915.94;4924291;29;20063;-48
2021/09/26 01:46:24;;;;;;;24.00;15.25;;;;;;;15.00;94.88;101941.66;4918821;29;20431;-47
2021/09/26 01:49:05;;;;;;;21.33;14.82;;;;;;;14.87;96.06;101942.00;4918872;29;20118;-48
2021/09/26 01:51:36;;;;;;;20.35;14.18;;;;;;;14.98;94.68;101945.66;4922479;29;20494;-47
2021/09/26 01:54:04;;;;;;;21.08;15.27;;;;;;;14.85;97.18;101946.00;4921863;29;20406;-48
2021/09/26 01:56:30;;;;;;;24.40;16.65;;;;;;;14.85;97.58;101940.59;4913363;29;20058;-48
2021/09/26 01:58:57;;;;;;;25.15;16.52;;;;;;;14.99;96.03;101950.00;4921019;29;20038;-48
2021/09/26 02:01:22;;;;;;;23.80;17.00;;;;;;;15.10;94.82;101951.78;4921184;29;20032;-50
2021/09/26 02:03:48;;;;;;;25.75;16.15;;;;;;;15.17;94.15;101951.59;4927353;29;20499;-48
2021/09/26 02:06:15;;;;;;;24.80;16.80;;;;;;;15.23;93.57;101958.69;4921736;29;20106;-48
2021/09/26 02:08:42;;;;;;;25.63;18.02;;;;;;;15.28;92.59;101948.78;4926237;28;20039;-48
2021/09/26 02:11:10;;;;;;;24.17;17.77;;;;;;;15.26;92.30;101953.63;4926301;29;20433;-51
2021/09/26 02:13:39;;;;;;;24.70;17.80;;;;;;;15.25;92.36;101951.16;4919613;29;20438;-48
2021/09/26 02:16:05;;;;;;;18.50;14.52;;;;;;;15.22;92.60;101955.16;4922876;29;20034;-48
2021/09/26 02:18:32;;;;;;;21.58;15.27;;;;;;;15.25;92.13;101945.75;4927233;23;20038;-83
2021/09/26 02:20:59;;;;;;;24.35;16.38;;;;;;;15.30;91.66;101951.22;4916028;29;20090;-82
2021/09/26 02:23:25;;;;;;;22.85;16.30;;;;;;;15.29;91.45;101947.72;4907057;29;20036;-83
2021/09/26 02:25:52;;;;;;;24.73;16.05;;;;;;;15.30;91.20;101957.44;4918037;29;20492;-81
2021/09/26 02:28:19;;;;;;;21.55;15.40;;;;;;;15.30;91.08;101949.34;4914314;29;20066;-82
2021/09/26 02:30:45;;;;;;;20.27;15.23;;;;;;;15.33;91.12;101948.03;4915876;29;20028;-81
2021/09/26 02:33:10;;;;;;;23.88;16.13;;;;;;;15.33;90.83;101956.94;4915036;29;20082;-81
2021/09/26 02:35:36;;;;;;;23.35;15.88;;;;;;;15.37;90.78;101955.38;4911952;29;20023;-82
2021/09/26 02:38:02;;;;;;;24.42;17.00;;;;;;;15.35;90.74;101954.00;4915398;29;20055;-81
2021/09/26 02:40:27;;;;;;;21.00;16.48;;;;;;;15.34;90.79;101950.47;4914843;29;20038;-81
2021/09/26 02:42:56;;;;;;;26.55;17.02;;;;;;;15.34;90.84;101961.28;4914371;29;20106;-81
2021/09/26 02:45:45;;;;;;;22.10;14.27;;;;;;;15.32;90.75;101951.81;4918116;29;20395;-82
2021/09/26 02:48:21;;;;;;;23.77;17.02;;;;;;;15.34;90.69;101961.28;4921112;29;20520;-81
2021/09/26 02:50:48;;;;;;;23.90;17.42;;;;;;;15.30;91.56;101959.34;4931054;29;20044;-81
2021/09/26 02:53:15;;;;;;;22.02;16.45;;;;;;;15.12;94.43;101957.75;4914486;29;20031;-81
2021/09/26 02:55:42;;;;;;;25.38;17.38;;;;;;;15.22;93.13;101960.56;4917156;29;20040;-82
2021/09/26 02:58:08;;;;;;;23.92;17.50;;;;;;;15.21;93.67;101964.34;4905728;29;20056;-82
2021/09/26 03:00:37;;;;;;;20.40;15.75;;;;;;;15.26;93.29;101968.97;4913960;29;20066;-82
2021/09/26 03:03:09;;;;;;;19.70;14.18;;;;;;;15.31;92.46;101955.56;4914049;29;20037;-82
2021/09/26 03:05:36;;;;;;;22.85;15.50;;;;;;;15.37;91.92;101957.25;4928655;29;20024;-82
2021/09/26 03:08:02;;;;;;;23.58;16.10;;;;;;;15.38;91.21;101956.19;4926119;29;20686;-82
2021/09/26 03:10:27;;;;;;;21.17;16.23;;;;;;;15.39;91.49;101955.94;4912013;29;20043;-81
2021/09/26 03:12:52;;;;;;;19.67;14.65;;;;;;;15.35;92.27;101960.22;4906896;29;20587;-81
2021/09/26 03:15:18;;;;;;;23.55;16.23;;;;;;;15.21;93.94;101961.63;4913876;29;20083;-81
2021/09/26 03:17:43;;;;;;;25.75;16.65;;;;;;;15.17;93.88;101962.38;4911761;29;20028;-81
2021/09/26 03:20:09;;;;;;;20.88;16.08;;;;;;;15.24;93.35;101961.13;4914441;29;20032;-82
2021/09/26 03:22:35;;;;;;;20.23;14.50;;;;;;;15.27;92.81;101955.25;4906139;29;20030;-81
2021/09/26 03:25:00;;;;;;;22.98;16.55;;;;;;;15.28;92.94;101959.59;4923863;29;20028;-82
2021/09/26 03:27:26;;;;;;;26.63;17.05;;;;;;;15.30;92.85;101954.75;4928379;29;20070;-81
2021/09/26 03:29:51;;;;;;;24.08;16.73;;;;;;;15.33;92.75;101956.94;4911799;29;20026;-81
2021/09/26 03:32:17;;;;;;;19.48;14.63;;;;;;;15.36;92.68;101956.44;4912405;29;20035;-81
2021/09/26 03:34:43;;;;;;;24.77;16.80;;;;;;;15.35;92.42;101962.91;4917070;29;20656;-81
2021/09/26 03:37:09;;;;;;;23.15;16.92;;;;;;;15.34;92.72;101953.19;4915017;29;20032;-80
2021/09/26 03:39:35;;;;;;;23.48;16.85;;;;;;;15.22;94.16;101957.06;4920044;29;20171;-80
2021/09/26 03:42:01;;;;;;;24.88;17.50;;;;;;;15.03;96.27;101961.91;4912327;29;20453;-81
2021/09/26 03:44:26;;;;;;;27.58;18.52;;;;;;;14.92;97.90;101952.88;4912085;29;20028;-80
2021/09/26 03:46:53;;;;;;;30.30;18.45;;;;;;;14.85;98.47;101960.31;4898737;29;20043;-81
2021/09/26 03:49:18;;;;;;;23.85;16.73;;;;;;;14.74;100.00;101959.34;4920647;29;20504;-81
2021/09/26 03:51:45;;;;;;;25.63;18.08;;;;;;;14.92;98.33;101958.28;4909998;29;20032;-81
2021/09/26 03:54:11;;;;;;;23.27;17.25;;;;;;;15.02;97.36;101954.88;4927189;29;20027;-80
2021/09/26 03:56:36;;;;;;;22.88;16.17;;;;;;;15.10;96.48;101955.31;4913147;29;21890;-80
2021/09/26 03:59:02;;;;;;;23.13;16.05;;;;;;;15.19;95.83;101952.16;4914188;29;20031;-81
2021/09/26 04:01:28;;;;;;;22.48;16.10;;;;;;;15.23;94.97;101956.81;4912030;29;20062;-81
2021/09/26 04:03:53;;;;;;;23.88;17.38;;;;;;;15.21;95.42;101958.13;4907261;29;20039;-81
2021/09/26 04:06:19;;;;;;;21.80;15.38;;;;;;;15.10;96.50;101960.69;4910446;29;20189;-81
2021/09/26 04:08:46;;;;;;;23.23;15.20;;;;;;;15.14;96.11;101958.31;4910894;29;20032;-81
2021/09/26 04:11:12;;;;;;;24.67;16.70;;;;;;;15.21;95.36;101960.81;4932082;29;20047;-81
2021/09/26 04:13:37;;;;;;;21.38;15.50;;;;;;;15.25;94.99;101967.34;4904334;29;20063;-81
2021/09/26 04:16:03;;;;;;;21.42;15.75;;;;;;;15.26;94.69;101956.31;4903150;29;20119;-80
2021/09/26 04:18:29;;;;;;;26.60;15.25;;;;;;;15.31;94.35;101961.78;4929470;29;20043;-80
2021/09/26 04:20:55;;;;;;;22.27;16.52;;;;;;;15.34;93.85;101965.88;4929817;29;20050;-81
2021/09/26 04:23:20;;;;;;;23.63;16.85;;;;;;;15.34;93.69;101955.06;4913667;29;20030;-80
2021/09/26 04:25:46;;;;;;;24.08;16.10;;;;;;;15.34;93.76;101961.28;4914923;29;20035;-80
2021/09/26 04:28:12;;;;;;;19.80;15.45;;;;;;;15.36;93.44;101955.63;4923279;29;20028;-81
2021/09/26 04:30:37;;;;;;;21.05;15.80;;;;;;;15.36;93.34;101953.75;4914077;29;20047;-80
2021/09/26 04:33:04;;;;;;;21.48;15.52;;;;;;;15.36;93.12;101959.13;4914553;29;20032;-81
2021/09/26 04:35:30;;;;;;;24.90;17.70;;;;;;;15.23;94.44;101959.50;4923388;29;20054;-80
2021/09/26 04:37:57;;;;;;;22.60;15.77;;;;;;;15.11;95.60;101961.50;4912069;29;20028;-82
2021/09/26 04:40:23;;;;;;;24.90;16.60;;;;;;;15.18;95.21;101962.13;4907123;29;20024;-81
2021/09/26 04:42:49;;;;;;;22.98;15.27;;;;;;;15.26;94.70;101950.94;4924576;29;20105;-81
2021/09/26 04:45:15;;;;;;;25.10;16.80;;;;;;;15.29;94.30;101953.13;4922575;29;20032;-81
2021/09/26 04:47:40;;;;;;;22.98;16.63;;;;;;;15.31;94.43;101961.78;4921057;29;20047;-80
2021/09/26 04:50:07;;;;;;;27.30;18.15;;;;;;;15.35;94.00;101959.41;4912878;29;20024;-81
2021/09/26 04:52:35;;;;;;;24.83;17.75;;;;;;;15.35;93.66;101954.00;4909546;29;20570;-81
2021/09/26 04:55:02;;;;;;;26.35;18.38;;;;;;;15.37;93.69;101952.66;4911326;29;20035;-82
2021/09/26 04:57:27;;;;;;;27.10;18.23;;;;;;;15.31;94.73;101966.38;4907936;29;20578;-81
2021/09/26 04:59:53;;;;;;;28.83;18.45;;;;;;;15.33;95.13;101959.66;4920466;29;20032;-81
2021/09/26 05:02:18;;;;;;;32.47;18.73;;;;;;;15.39;94.33;101958.63;4914615;29;20039;-81
2021/09/26 05:04:44;;;;;;;30.83;19.67;;;;;;;15.42;94.31;101963.53;4913274;29;20118;-81
2021/09/26 05:07:09;;;;;;;27.92;18.70;;;;;;;15.41;94.46;101964.59;4914522;29;20028;-81
2021/09/26 05:09:35;;;;;;;32.38;21.42;;;;;;;15.46;94.41;101965.75;4916052;29;20023;-81
2021/09/26 05:12:00;;;;;;;28.88;20.92;;;;;;;15.50;94.09;101967.69;4905244;29;20539;-81
2021/09/26 05:14:26;;;;;;;30.25;21.20;;;;;;;15.48;94.48;101964.44;4911513;29;20036;-81
2021/09/26 05:16:52;;;;;;;27.73;19.63;;;;;;;15.39;96.49;101972.13;4915722;29;20633;-81
2021/09/26 05:19:17;;;;;;;31.63;20.38;;;;;;;15.49;94.84;101966.06;4912606;29;20031;-81
2021/09/26 05:21:44;;;;;;;29.17;19.88;;;;;;;15.52;94.80;101973.66;4912043;29;20197;-80
2021/09/26 05:24:10;;;;;;;27.08;19.80;;;;;;;15.56;94.30;101973.97;4917017;29;20034;-80
2021/09/26 05:26:36;;;;;;;35.50;22.25;;;;;;;15.57;94.18;101976.41;4930946;29;20044;-80
2021/09/26 05:29:03;;;;;;;33.05;22.05;;;;;;;15.60;94.34;101977.81;4916283;29;20031;-81
2021/09/26 05:31:29;;;;;;;27.85;19.02;;;;;;;15.43;96.49;101978.66;4913549;29;20032;-81
2021/09/26 05:33:56;;;;;;;30.27;20.63;;;;;;;15.54;95.64;101982.31;4916496;29;20517;-81
2021/09/26 05:36:21;;;;;;;29.13;19.63;;;;;;;15.59;95.45;101985.13;4923248;29;20054;-81
2021/09/26 05:38:47;;;;;;;28.17;19.67;;;;;;;15.56;95.62;101985.59;4913972;29;20051;-81
2021/09/26 05:41:12;;;;;;;29.75;20.55;;;;;;;15.64;94.96;101981.69;4913775;29;20118;-81
2021/09/26 05:43:38;;;;;;;27.42;19.63;;;;;;;15.67;94.95;101978.47;4926938;29;20038;-81
2021/09/26 05:46:03;;;;;;;27.17;19.63;;;;;;;15.72;94.45;101973.13;4911255;29;20055;-81
2021/09/26 05:48:29;;;;;;;29.10;20.27;;;;;;;15.76;94.46;101982.34;4923603;29;20039;-81
2021/09/26 05:50:55;;;;;;;28.23;20.48;;;;;;;15.78;94.43;101982.91;4926411;29;20032;-81
2021/09/26 05:53:21;;;;;;;28.52;19.33;;;;;;;15.82;93.79;101986.75;4911575;29;20036;-81
2021/09/26 05:55:47;;;;;;;24.67;18.67;;;;;;;15.87;93.75;101984.09;4923950;29;20486;-81
2021/09/26 05:58:13;;;;;;;28.02;18.40;;;;;;;15.86;94.19;101987.06;4911225;29;20043;-80
2021/09/26 06:00:39;;;;;;;27.27;20.70;;;;;;;15.94;93.58;101987.41;4908573;29;20036;-81
2021/09/26 06:03:04;;;;;;;27.20;19.15;;;;;;;15.95;93.34;101982.81;4921725;29;20039;-82
2021/09/26 06:05:30;;;;;;;27.08;19.50;;;;;;;16.00;93.04;101985.59;4911217;29;20028;-81
2021/09/26 06:07:55;;;;;;;27.58;18.92;;;;;;;15.95;93.40;101988.22;4925787;29;20036;-82
2021/09/26 06:10:21;;;;;;;26.67;19.08;;;;;;;15.81;95.02;101995.94;4910945;29;20063;-81
2021/09/26 06:12:47;;;;;;;32.40;20.40;;;;;;;15.81;94.96;101993.22;4923223;29;20038;-81
2021/09/26 06:15:13;;;;;;;27.92;18.83;;;;;;;15.83;94.65;101988.41;4911465;29;20059;-82
2021/09/26 06:17:39;;;;;;;26.95;19.27;;;;;;;15.85;94.61;101998.94;4911108;29;20467;-81
2021/09/26 06:20:06;;;;;;;30.48;20.08;;;;;;;15.93;94.22;101993.06;4921269;29;20111;-81
2021/09/26 06:22:31;;;;;;;26.75;18.50;;;;;;;16.04;93.65;101992.13;4911094;29;20454;-81
2021/09/26 06:24:58;;;;;;;28.38;18.88;;;;;;;16.06;93.97;102000.81;4906838;29;20031;-81
2021/09/26 06:27:25;;;;;;;27.48;18.77;;;;;;;16.11;93.54;101998.13;4910139;29;20031;-81
2021/09/26 06:29:51;;;;;;;30.17;19.15;;;;;;;16.19;93.01;101999.59;4916767;29;20028;-81
2021/09/26 06:32:16;;;;;;;25.58;18.48;;;;;;;16.25;92.63;102002.09;4902754;29;20054;-82
2021/09/26 06:34:42;;;;;;;29.88;19.33;;;;;;;16.30;92.47;102006.72;4928810;28;20470;-81
2021/09/26 06:37:08;;;;;;;27.25;18.13;;;;;;;16.35;92.27;102012.19;4927916;29;20509;-81
2021/09/26 06:39:35;;;;;;;26.52;18.83;;;;;;;16.44;91.62;102013.34;4927773;29;20733;-82
2021/09/26 06:42:01;;;;;;;26.27;18.88;;;;;;;16.51;90.97;102007.72;4930383;29;20035;-82
2021/09/26 06:44:27;;;;;;;27.25;18.38;;;;;;;16.56;91.26;102005.09;4908467;29;20058;-81
2021/09/26 06:46:53;;;;;;;26.40;17.98;;;;;;;16.58;91.45;102009.16;4906675;29;20421;-82
2021/09/26 06:49:19;;;;;;;27.90;18.55;;;;;;;16.62;91.25;102010.25;4929949;29;20502;-81
2021/09/26 06:51:45;;;;;;;26.45;18.05;;;;;;;16.65;90.52;102008.13;4912931;29;20067;-81
2021/09/26 06:54:10;;;;;;;25.58;18.17;;;;;;;16.67;90.82;102011.41;4911220;29;20393;-82
2021/09/26 06:56:36;;;;;;;25.58;18.08;;;;;;;16.73;90.52;102013.09;4918975;29;20036;-81
2021/09/26 06:59:01;;;;;;;23.85;17.25;;;;;;;16.83;90.05;102018.56;4924030;29;20398;-81
2021/09/26 07:01:27;;;;;;;23.42;16.83;;;;;;;16.87;89.83;102017.78;4911609;29;20106;-82
2021/09/26 07:03:52;;;;;;;26.27;18.02;;;;;;;16.93;89.56;102018.66;4914513;29;20110;-81
2021/09/26 07:06:18;;;;;;;24.52;17.65;;;;;;;17.00;89.23;102016.53;4913510;29;20022;-81
2021/09/26 07:08:43;;;;;;;21.85;17.02;;;;;;;17.09;89.02;102016.88;4930259;29;20043;-81
2021/09/26 07:11:09;;;;;;;22.05;16.83;;;;;;;17.18;88.70;102009.88;4921859;29;20034;-81
2021/09/26 07:13:34;;;;;;;24.95;17.52;;;;;;;17.31;88.09;102014.84;4921874;29;20495;-82
2021/09/26 07:16:00;;;;;;;24.92;17.77;;;;;;;17.29;88.23;102016.19;4927424;29;20024;-81
2021/09/26 07:18:25;;;;;;;23.65;15.55;;;;;;;17.43;87.50;102029.03;4919336;29;20106;-82
2021/09/26 07:20:51;;;;;;;23.73;15.70;;;;;;;17.48;87.30;102025.50;4928119;29;20031;-81
2021/09/26 07:23:16;;;;;;;22.05;17.13;;;;;;;17.61;87.17;102016.09;4910834;29;20681;-82
2021/09/26 07:25:42;;;;;;;26.75;17.52;;;;;;;17.71;86.53;102021.56;4907692;29;20038;-81
2021/09/26 07:28:07;;;;;;;23.85;16.80;;;;;;;17.90;85.90;102021.91;4921638;29;20267;-82
2021/09/26 07:30:34;;;;;;;23.85;16.60;;;;;;;17.92;85.67;102025.19;4917026;29;20611;-82
2021/09/26 07:32:59;;;;;;;21.73;17.05;;;;;;;18.07;85.04;102015.19;4905689;29;20130;-81
2021/09/26 07:35:27;;;;;;;22.10;16.95;;;;;;;18.29;84.31;102016.84;4918465;29;20069;-81
2021/09/26 07:37:52;;;;;;;19.58;15.70;;;;;;;18.37;83.80;102009.03;4910122;29;20039;-81
2021/09/26 07:40:18;;;;;;;22.88;16.48;;;;;;;18.48;83.40;102017.16;4910022;29;20023;-81
2021/09/26 07:42:43;;;;;;;22.70;14.60;;;;;;;18.50;82.90;102020.44;4924784;29;20031;-81
2021/09/26 07:45:12;;;;;;;19.40;15.00;;;;;;;18.65;82.37;102025.88;4915805;29;20182;-81
2021/09/26 07:47:38;;;;;;;20.25;14.57;;;;;;;18.65;80.92;102031.31;4920826;29;20083;-82
2021/09/26 07:50:04;;;;;;;19.65;14.95;;;;;;;18.70;81.34;102028.63;4910575;29;20446;-82
2021/09/26 07:52:30;;;;;;;19.30;14.48;;;;;;;18.89;81.76;102026.16;4913197;29;20662;-80
2021/09/26 07:54:56;;;;;;;20.17;15.20;;;;;;;19.08;80.74;102029.13;4910311;29;20031;-80
2021/09/26 07:57:23;;;;;;;25.02;15.50;;;;;;;19.18;80.19;102032.63;4923554;29;20054;-80
2021/09/26 07:59:50;;;;;;;19.33;14.60;;;;;;;18.96;79.78;102038.38;4928846;29;20134;-80
2021/09/26 08:02:16;;;;;;;18.70;14.57;;;;;;;19.06;80.10;102036.75;4924497;29;20031;-79
2021/09/26 08:04:42;;;;;;;17.35;14.68;;;;;;;19.19;79.51;102031.53;4916644;29;20028;-80
2021/09/26 08:07:07;;;;;;;17.83;14.40;;;;;;;19.21;79.59;102028.56;4906101;29;20066;-79
2021/09/26 08:09:33;;;;;;;17.88;13.80;;;;;;;19.53;78.62;102020.84;4924378;29;20042;-79
2021/09/26 08:11:59;;;;;;;16.98;13.85;;;;;;;19.72;77.79;102023.81;4933177;29;20023;-79
2021/09/26 08:14:25;;;;;;;17.00;13.10;;;;;;;19.97;77.10;102022.09;4916051;29;20379;-79
2021/09/26 08:16:50;;;;;;;19.65;14.32;;;;;;;20.06;76.59;102021.19;4915615;29;20020;-79
2021/09/26 08:19:16;;;;;;;16.58;13.02;;;;;;;20.14;76.34;102023.34;4910675;29;20031;-79
2021/09/26 08:21:44;;;;;;;18.55;13.80;;;;;;;20.32;76.04;102026.50;4931854;29;20028;-80
2021/09/26 08:24:10;;;;;;;17.15;13.63;;;;;;;20.17;76.26;102022.78;4917927;29;20490;-80
2021/09/26 08:26:36;;;;;;;18.13;13.48;;;;;;;20.41;75.36;102030.25;4913920;29;20024;-79
2021/09/26 08:29:02;;;;;;;19.70;14.65;;;;;;;20.70;74.70;102022.97;4924058;29;20521;-79
2021/09/26 08:31:28;;;;;;;20.73;14.45;;;;;;;21.01;73.51;102023.50;4912194;29;20031;-79
2021/09/26 08:33:55;;;;;;;19.20;14.48;;;;;;;21.26;72.57;102025.19;4925573;29;20429;-79
2021/09/26 08:36:20;;;;;;;21.33;15.77;;;;;;;21.48;72.32;102027.41;4912563;29;20034;-81
2021/09/26 08:38:46;;;;;;;21.92;17.05;;;;;;;21.62;71.38;102013.88;4922769;29;20039;-80
2021/09/26 08:41:13;;;;;;;32.90;25.42;;;;;;;21.75;71.10;102015.09;4912859;29;20032;-79
2021/09/26 08:43:39;;;;;;;14.55;11.85;;;;;;;21.82;70.86;102008.16;4925679;29;20042;-79
2021/09/26 08:46:06;;;;;;;13.55;10.95;;;;;;;21.96;69.49;102013.72;4911831;29;20035;-79
2021/09/26 08:48:32;;;;;;;12.55;10.18;;;;;;;21.93;69.58;102009.66;4912501;29;20063;-79
2021/09/26 08:50:58;;;;;;;13.00;11.45;;;;;;;22.08;69.34;102018.75;4913615;29;20031;-79
2021/09/26 08:53:27;;;;;;;13.65;10.15;;;;;;;22.13;68.49;102011.31;4928997;29;20027;-80
2021/09/26 08:55:54;;;;;;;14.30;11.13;;;;;;;22.38;68.33;102021.03;4924788;29;20079;-80
2021/09/26 08:58:20;;;;;;;11.32;7.63;;;;;;;22.42;65.06;102019.31;4918359;29;20079;-80
2021/09/26 09:00:47;;;;;;;13.52;7.88;;;;;;;22.25;66.10;102019.03;4911478;29;20028;-80
2021/09/26 09:03:13;;;;;;;12.75;8.43;;;;;;;22.31;66.32;102015.16;4922952;29;20028;-80
2021/09/26 09:05:40;;;;;;;7.85;6.60;;;;;;;22.33;65.95;102015.66;4912479;29;20114;-80
2021/09/26 09:08:17;;;;;;;10.48;6.60;;;;;;;22.28;64.61;102007.56;4912688;29;20122;-80
2021/09/26 09:10:52;;;;;;;9.15;7.25;;;;;;;21.99;64.12;102011.19;4926255;29;20075;-80
2021/09/26 09:13:30;;;;;;;9.70;7.07;;;;;;;21.88;64.50;102001.50;4923761;29;20027;-80
2021/09/26 09:16:07;;;;;;;8.02;7.15;;;;;;;22.13;65.56;101999.59;4931959;29;20024;-80
2021/09/26 09:18:52;;;;;;;10.10;7.50;;;;;;;;;;4912174;29;20223;-80
2021/09/26 09:21:29;;;;;;;10.32;7.30;;;;;;;22.65;63.72;102003.13;4922917;28;20049;-80
2021/09/26 09:24:24;;;;;;;8.73;6.72;;;;;;;22.82;63.57;102000.69;4926415;29;20038;-80
2021/09/26 09:26:52;;;;;;;7.07;6.22;;;;;;;23.01;62.28;101993.22;4911832;29;20490;-81
2021/09/26 09:29:20;;;;;;;7.13;6.43;;;;;;;23.16;62.33;101998.41;4912765;29;20032;-80
2021/09/26 09:31:50;;;;;;;7.25;5.80;;;;;;;23.32;61.36;101995.34;4904075;29;20236;-80
2021/09/26 09:34:35;;;;;;;9.60;5.90;;;;;;;23.41;59.88;101999.81;4922556;29;20032;-83
2021/09/26 09:37:16;;;;;;;;;;;;;;;23.48;59.71;102000.22;4914709;29;20028;-84
2021/09/26 09:40:03;;;;;;;5.38;4.88;;;;;;;23.47;59.01;101993.13;4926284;29;19923;-85
2021/09/26 09:42:37;;;;;;;5.90;5.00;;;;;;;23.57;58.03;101986.69;4922240;29;20032;-85
2021/09/26 09:45:23;;;;;;;7.10;5.88;;;;;;;23.45;57.43;101995.34;4923736;29;20119;-85
2021/09/26 09:48:11;;;;;;;5.25;4.70;;;;;;;23.57;56.95;102000.34;4924878;29;20038;-84
2021/09/26 09:50:56;;;;;;;5.88;4.07;;;;;;;23.53;55.50;102004.78;4923411;29;20039;-89
2021/09/26 09:53:25;;;;;;;;;;;;;;;23.71;54.65;101995.69;4917620;29;20390;-88
2021/09/26 09:56:03;;;;;;;4.63;4.22;;;;;;;23.83;55.78;101986.13;4926717;29;19990;-83
2021/09/26 09:58:45;;;;;;;6.18;4.75;;;;;;;23.96;54.97;101988.03;4925183;29;20174;-83
2021/09/26 10:01:17;;;;;;;4.47;4.07;;;;;;;23.99;55.18;101990.13;4909152;29;20106;-83
2021/09/26 10:03:50;;;;;;;5.38;3.72;;;;;;;23.99;54.59;101977.25;4910954;29;20030;-86
2021/09/26 10:06:45;;;;;;;8.93;4.40;;;;;;;24.14;54.83;101978.84;4917751;29;20023;-85
2021/09/26 10:09:13;;;;;;;4.43;4.03;;;;;;;24.33;54.21;101976.75;4911078;29;20035;-85
2021/09/26 10:11:44;;;;;;;3.80;3.42;;;;;;;24.35;53.20;101979.19;4924581;29;20069;-84
2021/09/26 10:14:10;;;;;;;4.70;4.13;;;;;;;24.46;52.85;101987.97;4931610;29;20035;-86
2021/09/26 10:16:36;;;;;;;3.92;3.05;;;;;;;24.41;52.53;101991.63;4936670;29;20103;-89
2021/09/26 10:19:02;;;;;;;5.95;3.10;;;;;;;23.93;51.34;101981.25;4917331;29;20083;-86
2021/09/26 10:21:29;;;;;;;4.57;3.38;;;;;;;24.42;51.89;101985.06;4936938;29;20040;-87
2021/09/26 10:23:57;;;;;;;5.43;3.72;;;;;;;24.54;52.26;101977.06;4919473;29;20119;-87
2021/09/26 10:26:26;;;;;;;4.63;3.20;;;;;;;24.56;51.87;101980.28;4933190;29;20075;-87
2021/09/26 10:28:54;;;;;;;3.95;3.65;;;;;;;24.65;51.58;101974.88;4919046;29;20395;-88
2021/09/26 10:31:20;;;;;;;5.63;3.17;;;;;;;24.88;51.44;101978.38;4922013;29;20073;-88
2021/09/26 10:33:47;;;;;;;4.20;3.33;;;;;;;25.04;50.79;101970.59;4933255;29;20091;-86
2021/09/26 10:36:25;;;;;;;3.63;3.33;;;;;;;25.02;50.52;101970.91;4920346;29;20066;-88
2021/09/26 10:39:08;;;;;;;3.35;3.05;;;;;;;25.24;50.88;101967.28;4921471;29;20035;-89
2021/09/26 10:42:10;;;;;;;11.60;8.05;;;;;;;25.39;50.71;101971.50;4916341;29;20020;-87
2021/09/26 10:44:54;;;;;;;17.40;11.13;;;;;;;25.42;49.03;101970.88;4938021;29;20130;-90
2021/09/26 10:47:34;;;;;;;12.00;7.25;;;;;;;25.17;49.13;101961.44;4940393;29;20039;-91
2021/09/26 10:50:23;;;;;;;8.50;6.63;;;;;;;25.33;49.63;101961.81;4929933;29;20031;-91
2021/09/26 10:53:05;;;;;;;31.48;20.55;;;;;;;25.10;50.17;101964.63;4915442;29;20292;-91
2021/09/26 10:55:40;;;;;;;26.63;18.02;;;;;;;25.29;50.89;101967.13;4921365;29;20039;-91
2021/09/26 10:58:06;;;;;;;7.43;6.47;;;;;;;25.32;50.78;101961.03;4922782;29;20066;-90
2021/09/26 11:00:53;;;;;;;29.30;20.17;;;;;;;25.17;50.34;101950.47;4931516;29;20028;-91
2021/09/26 11:03:42;;;;;;;13.40;10.82;;;;;;;25.09;50.43;101953.97;4931201;29;20030;-91
2021/09/26 11:06:34;;;;;;;6.30;4.93;;;;;;;25.25;50.10;101944.19;4933084;29;20031;-91
2021/09/26 11:09:07;;;;;;;4.78;4.03;;;;;;;25.54;49.37;101947.19;4916898;29;20051;-91
2021/09/26 11:11:46;;;;;;;3.90;3.55;;;;;;;25.74;47.94;101942.22;4930311;29;20030;-82
2021/09/26 11:14:13;;;;;;;5.53;4.10;;;;;;;25.80;48.03;101939.00;4933110;29;20063;-82
2021/09/26 11:16:55;;;;;;;3.30;3.00;;;;;;;25.96;47.03;101947.56;4927055;29;20075;-81
2021/09/26 11:19:23;;;;;;;3.47;3.00;;;;;;;26.06;47.40;101944.50;4912419;29;20027;-82
2021/09/26 11:21:57;;;;;;;5.10;3.92;;;;;;;26.36;47.31;101950.13;4910583;29;20044;-82
2021/09/26 11:24:22;;;;;;;3.85;2.78;;;;;;;26.59;46.56;101948.00;4912754;29;20047;-82